Time;durP1;ratioP1;P1;durP2;ratioP2;P2;SDS_P1;SDS_P2;PMS_P1;PMS_P2;Temp;Humidity;BMP_temperature;BMP_pressure;BME280_temperature;BME280_humidity;BME280_pressure;Samples;Min_cycle;Max_cycle;Signal;HPM_P1;HPM_P2
2021/01/18 00:00:05;;;;;;;32.03;5.38;;;;;;;;;;5029514;28;20533;-72
2021/01/18 00:02:31;;;;;;;28.40;5.72;;;;;;;;;;5016002;28;20457;-72
2021/01/18 00:04:57;;;;;;;33.03;5.45;;;;;;;;;;5025880;28;20524;-72
2021/01/18 00:07:23;;;;;;;22.65;5.20;;;;;;;;;;5030878;28;20055;-72
2021/01/18 00:09:49;;;;;;;24.85;6.35;;;;;;;;;;5027796;28;20383;-72
2021/01/18 00:12:15;;;;;;;23.23;6.00;;;;;;;;;;5026749;28;20025;-72
2021/01/18 00:14:41;;;;;;;26.55;5.03;;;;;;;;;;5030582;28;20041;-72
2021/01/18 00:17:08;;;;;;;26.27;5.30;;;;;;;;;;5030702;28;20025;-72
2021/01/18 00:19:34;;;;;;;26.63;5.70;;;;;;;;;;5028554;28;20474;-72
2021/01/18 00:22:00;;;;;;;30.05;7.07;;;;;;;;;;5026872;28;20128;-72
2021/01/18 00:24:26;;;;;;;25.80;6.25;;;;;;;;;;5029009;28;20021;-72
2021/01/18 00:26:52;;;;;;;24.83;4.75;;;;;;;;;;5029939;28;20022;-72
2021/01/18 00:29:18;;;;;;;25.63;5.55;;;;;;;;;;5028668;28;20478;-72
2021/01/18 00:31:45;;;;;;;27.38;6.78;;;;;;;;;;5028278;28;20025;-72
2021/01/18 00:34:11;;;;;;;25.10;6.18;;;;;;;;;;5029029;28;20025;-72
2021/01/18 00:36:44;;;;;;;28.83;6.18;;;;;;;;;;5030164;28;20033;-72
2021/01/18 00:39:10;;;;;;;24.52;6.45;;;;;;;;;;5029863;28;20104;-72
2021/01/18 00:41:39;;;;;;;19.70;6.97;;;;;;;;;;5029643;28;20551;-72
2021/01/18 00:44:06;;;;;;;26.55;6.32;;;;;;;;;;5026710;28;20021;-72
2021/01/18 00:46:32;;;;;;;36.50;6.80;;;;;;;;;;5028888;28;20066;-72
2021/01/18 00:48:58;;;;;;;29.23;6.10;;;;;;;;;;5029290;28;20398;-72
2021/01/18 00:51:24;;;;;;;29.88;6.97;;;;;;;;;;5029160;28;20385;-72
2021/01/18 00:53:50;;;;;;;29.85;6.60;;;;;;;;;;5025963;28;20501;-72
2021/01/18 00:56:16;;;;;;;29.08;6.82;;;;;;;;;;5029007;28;20485;-72
2021/01/18 00:58:43;;;;;;;24.45;6.03;;;;;;;;;;5029148;28;20389;-72
2021/01/18 01:01:09;;;;;;;21.50;5.50;;;;;;;;;;5028944;28;20038;-72
2021/01/18 01:03:35;;;;;;;29.23;6.15;;;;;;;;;;5026445;28;20118;-72
2021/01/18 01:06:01;;;;;;;29.90;5.90;;;;;;;;;;5029598;28;20025;-72
2021/01/18 01:08:27;;;;;;;33.00;6.68;;;;;;;;;;5028565;28;20037;-72
2021/01/18 01:10:53;;;;;;;28.55;6.55;;;;;;;;;;5026366;28;20033;-72
2021/01/18 01:13:19;;;;;;;25.50;6.88;;;;;;;;;;5025233;28;20517;-72
2021/01/18 01:15:45;;;;;;;28.05;5.63;;;;;;;;;;5027898;28;20033;-72
2021/01/18 01:18:11;;;;;;;29.10;6.22;;;;;;;;;;5029372;28;20501;-72
2021/01/18 01:20:37;;;;;;;29.77;6.68;;;;;;;;;;5027500;28;20037;-72
2021/01/18 01:23:03;;;;;;;25.35;5.80;;;;;;;;;;5026344;28;20037;-72
2021/01/18 01:25:30;;;;;;;25.73;5.72;;;;;;;;;;5028916;28;20021;-73
2021/01/18 01:27:56;;;;;;;28.00;6.95;;;;;;;;;;5030019;28;20025;-72
2021/01/18 01:30:23;;;;;;;33.65;6.78;;;;;;;;;;5027990;28;20044;-72
2021/01/18 01:32:50;;;;;;;26.50;5.78;;;;;;;;;;5024310;28;20036;-72
2021/01/18 01:35:17;;;;;;;30.83;7.03;;;;;;;;;;5029013;28;20022;-72
2021/01/18 01:37:43;;;;;;;27.10;6.53;;;;;;;;;;5028226;28;20091;-72
2021/01/18 01:40:10;;;;;;;26.33;6.70;;;;;;;;;;5028652;28;20014;-72
2021/01/18 01:42:37;;;;;;;28.98;6.85;;;;;;;;;;5022461;28;20083;-72
2021/01/18 01:45:04;;;;;;;31.50;6.22;;;;;;;;;;5029352;28;20029;-72
2021/01/18 01:47:44;;;;;;;42.25;9.30;;;;;;;;;;5027328;28;20080;-72
2021/01/18 01:50:15;;;;;;;28.45;6.22;;;;;;;;;;5027520;28;20033;-72
2021/01/18 01:52:41;;;;;;;;;;;;;;;;;;5027097;28;20029;-72
2021/01/18 01:55:08;;;;;;;23.17;6.25;;;;;;;;;;5026352;28;19940;-72
2021/01/18 01:57:36;;;;;;;31.42;6.43;;;;;;;;;;5028611;28;20030;-72
2021/01/18 02:00:02;;;;;;;27.23;5.65;;;;;;;;;;5028127;28;20496;-72
2021/01/18 02:02:28;;;;;;;22.35;6.32;;;;;;;;;;5035027;28;20022;-72
2021/01/18 02:04:54;;;;;;;30.80;7.43;;;;;;;;;;5028643;28;20522;-72
2021/01/18 02:07:27;;;;;;;25.05;5.13;;;;;;;;;;5028439;28;20072;-72
2021/01/18 02:09:53;;;;;;;29.33;7.15;;;;;;;;;;5028300;28;20087;-72
2021/01/18 02:12:19;;;;;;;32.20;6.20;;;;;;;;;;5029331;28;20508;-72
2021/01/18 02:14:55;;;;;;;29.25;4.72;;;;;;;;;;5028029;28;20029;-72
2021/01/18 02:17:41;;;;;;;33.90;6.05;;;;;;;;;;5028328;28;20018;-72
2021/01/18 02:20:07;;;;;;;26.25;5.45;;;;;;;;;;5030082;28;20053;-72
2021/01/18 02:22:51;;;;;;;21.70;5.13;;;;;;;;;;5029374;28;20470;-72
2021/01/18 02:25:17;;;;;;;27.90;5.03;;;;;;;;;;5029543;28;20017;-72
2021/01/18 02:27:53;;;;;;;35.22;6.25;;;;;;;;;;5032008;28;20048;-72
2021/01/18 02:30:25;;;;;;;27.52;6.03;;;;;;;;;;5032527;28;20017;-72
2021/01/18 02:33:14;;;;;;;24.17;5.95;;;;;;;;;;5027064;28;20021;-72
2021/01/18 02:35:43;;;;;;;24.30;6.18;;;;;;;;;;5029492;28;20045;-72
2021/01/18 02:38:12;;;;;;;30.05;6.68;;;;;;;;;;5031176;28;20318;-72
2021/01/18 02:40:46;;;;;;;35.92;6.10;;;;;;;;;;5029960;28;20275;-72
2021/01/18 02:43:14;;;;;;;28.10;5.80;;;;;;;;;;5030298;28;20104;-72
2021/01/18 02:45:41;;;;;;;28.48;4.90;;;;;;;;;;5031177;28;20025;-72
2021/01/18 02:48:07;;;;;;;28.95;6.00;;;;;;;;;;5029635;28;20121;-72
2021/01/18 02:50:34;;;;;;;28.00;5.50;;;;;;;;;;5031238;28;20043;-72
2021/01/18 02:53:01;;;;;;;25.88;4.72;;;;;;;;;;5029960;28;20037;-72
2021/01/18 02:55:27;;;;;;;25.63;5.20;;;;;;;;;;5032344;28;20025;-72
2021/01/18 02:57:54;;;;;;;27.35;5.15;;;;;;;;;;5031711;28;20116;-72
2021/01/18 03:00:39;;;;;;;35.90;6.38;;;;;;;;;;5031508;28;20041;-72
2021/01/18 03:03:05;;;;;;;24.73;4.22;;;;;;;;;;5027732;28;20041;-72
2021/01/18 03:05:34;;;;;;;32.03;6.35;;;;;;;;;;5031692;28;20026;-72
2021/01/18 03:08:00;;;;;;;26.40;5.07;;;;;;;;;;5031913;28;20037;-72
2021/01/18 03:10:34;;;;;;;29.55;5.53;;;;;;;;;;5028154;28;20029;-72
2021/01/18 03:13:02;;;;;;;31.95;5.05;;;;;;;;;;5027161;28;20041;-72
2021/01/18 03:15:31;;;;;;;19.40;4.18;;;;;;;;;;5030714;28;20083;-72
2021/01/18 03:17:59;;;;;;;15.32;3.90;;;;;;;;;;5031875;28;20048;-71
2021/01/18 03:20:26;;;;;;;21.13;4.57;;;;;;;;;;5030167;28;20032;-72
2021/01/18 03:22:52;;;;;;;21.02;3.45;;;;;;;;;;5024569;28;20030;-72
2021/01/18 03:25:18;;;;;;;18.92;3.90;;;;;;;;;;5031482;28;20536;-72
2021/01/18 03:27:57;;;;;;;25.23;4.78;;;;;;;;;;5031089;28;20037;-73
2021/01/18 03:30:23;;;;;;;26.25;4.25;;;;;;;;;;5029598;28;20379;-72
2021/01/18 03:32:55;;;;;;;30.60;4.43;;;;;;;;;;5027549;28;20521;-72
2021/01/18 03:35:21;;;;;;;21.90;4.18;;;;;;;;;;5032256;28;20021;-71
2021/01/18 03:37:54;;;;;;;24.85;4.60;;;;;;;;;;5027789;28;20025;-72
2021/01/18 03:40:24;;;;;;;35.83;5.65;;;;;;;;;;5030176;28;20056;-72
2021/01/18 03:42:57;;;;;;;28.30;5.95;;;;;;;;;;5028121;28;20022;-72
2021/01/18 03:45:25;;;;;;;30.58;4.72;;;;;;;;;;5031278;28;20029;-72
2021/01/18 03:47:52;;;;;;;24.52;4.43;;;;;;;;;;5029882;28;20017;-72
2021/01/18 03:50:19;;;;;;;27.23;4.32;;;;;;;;;;5030749;28;20028;-72
2021/01/18 03:52:48;;;;;;;32.45;4.72;;;;;;;;;;5027222;28;20032;-72
2021/01/18 03:55:15;;;;;;;34.97;5.47;;;;;;;;;;5030092;28;20026;-72
2021/01/18 03:57:42;;;;;;;31.50;5.28;;;;;;;;;;5030052;28;20068;-72
2021/01/18 04:00:08;;;;;;;23.75;4.63;;;;;;;;;;5030639;28;20029;-72
2021/01/18 04:02:35;;;;;;;27.80;4.57;;;;;;;;;;5026895;28;20124;-72
2021/01/18 04:05:01;;;;;;;26.40;4.30;;;;;;;;;;5028520;28;20049;-73
2021/01/18 04:07:27;;;;;;;33.10;5.40;;;;;;;;;;5026573;28;20037;-72
2021/01/18 04:09:53;;;;;;;28.60;4.53;;;;;;;;;;5029173;28;20026;-72
2021/01/18 04:12:19;;;;;;;20.08;3.25;;;;;;;;;;5026960;28;20034;-72
2021/01/18 04:14:45;;;;;;;29.98;4.47;;;;;;;;;;5029615;28;20025;-72
2021/01/18 04:17:11;;;;;;;27.10;5.55;;;;;;;;;;5030261;28;20030;-72
2021/01/18 04:19:37;;;;;;;21.30;4.47;;;;;;;;;;5029129;28;20036;-73
2021/01/18 04:22:06;;;;;;;28.33;4.20;;;;;;;;;;5027927;28;20344;-72
2021/01/18 04:24:34;;;;;;;36.33;4.53;;;;;;;;;;5029917;28;20022;-72
2021/01/18 04:27:00;;;;;;;25.48;3.40;;;;;;;;;;5031173;28;20036;-73
2021/01/18 04:29:26;;;;;;;26.48;3.83;;;;;;;;;;5030282;28;20064;-72
2021/01/18 04:31:53;;;;;;;20.90;4.05;;;;;;;;;;5026499;28;20029;-72
2021/01/18 04:34:19;;;;;;;24.13;5.95;;;;;;;;;;5027352;28;20034;-72
2021/01/18 04:36:45;;;;;;;19.38;4.05;;;;;;;;;;5026422;28;20029;-72
2021/01/18 04:39:11;;;;;;;27.85;4.05;;;;;;;;;;5030164;28;20021;-72
2021/01/18 04:41:37;;;;;;;29.15;4.50;;;;;;;;;;5027712;28;20021;-71
2021/01/18 04:44:07;;;;;;;28.75;6.28;;;;;;;;;;5027926;28;20060;-72
2021/01/18 04:46:37;;;;;;;31.08;4.63;;;;;;;;;;5026100;28;20033;-71
2021/01/18 04:49:03;;;;;;;26.88;4.75;;;;;;;;;;5027444;28;20029;-72
2021/01/18 04:51:33;;;;;;;24.55;4.40;;;;;;;;;;5029379;28;20033;-72
2021/01/18 04:54:00;;;;;;;28.40;5.18;;;;;;;;;;5022526;28;20025;-72
2021/01/18 04:56:26;;;;;;;24.15;5.13;;;;;;;;;;5022375;28;20029;-72
2021/01/18 04:58:53;;;;;;;28.05;5.60;;;;;;;;;;5024445;28;20033;-72
2021/01/18 05:01:26;;;;;;;31.48;5.30;;;;;;;;;;5028358;28;20021;-72
2021/01/18 05:03:56;;;;;;;27.48;4.10;;;;;;;;;;5026799;28;20021;-72
2021/01/18 05:06:33;;;;;;;24.15;4.00;;;;;;;;;;5028978;28;20018;-72
2021/01/18 05:09:18;;;;;;;25.52;5.10;;;;;;;;;;5027915;28;20031;-72
2021/01/18 05:11:46;;;;;;;19.48;4.88;;;;;;;;;;5026375;28;20025;-72
2021/01/18 05:14:13;;;;;;;28.52;4.55;;;;;;;;;;5027248;28;20029;-72
2021/01/18 05:16:40;;;;;;;30.55;5.05;;;;;;;;;;5028998;28;20022;-72
2021/01/18 05:19:10;;;;;;;24.00;4.70;;;;;;;;;;5030196;28;20041;-72
2021/01/18 05:21:40;;;;;;;26.42;5.78;;;;;;;;;;5028347;28;20044;-72
2021/01/18 05:24:06;;;;;;;25.13;4.57;;;;;;;;;;5028494;28;20036;-73
2021/01/18 05:26:32;;;;;;;27.90;4.85;;;;;;;;;;5026156;28;20101;-73
2021/01/18 05:28:58;;;;;;;26.77;6.05;;;;;;;;;;5028226;28;20091;-73
2021/01/18 05:31:28;;;;;;;18.85;4.68;;;;;;;;;;5027458;28;20022;-73
2021/01/18 05:33:54;;;;;;;16.30;3.85;;;;;;;;;;5026338;28;20044;-73
2021/01/18 05:36:40;;;;;;;24.63;4.75;;;;;;;;;;5028106;28;20030;-72
2021/01/18 05:39:23;;;;;;;31.98;6.15;;;;;;;;;;5025158;28;20025;-72
2021/01/18 05:41:50;;;;;;;23.85;4.53;;;;;;;;;;5025143;28;20112;-73
2021/01/18 05:44:17;;;;;;;27.17;4.93;;;;;;;;;;5029117;28;20014;-73
2021/01/18 05:46:46;;;;;;;24.55;5.32;;;;;;;;;;5028837;28;20028;-72
2021/01/18 05:49:13;;;;;;;27.77;5.63;;;;;;;;;;5028678;28;20021;-72
2021/01/18 05:51:40;;;;;;;25.05;4.65;;;;;;;;;;5026697;28;20020;-73
2021/01/18 05:54:07;;;;;;;28.52;5.45;;;;;;;;;;5027449;28;20120;-72
2021/01/18 05:56:41;;;;;;;27.13;5.38;;;;;;;;;;5028575;28;20115;-73
2021/01/18 05:59:13;;;;;;;21.13;5.38;;;;;;;;;;5031533;28;20390;-72
2021/01/18 06:01:40;;;;;;;24.00;5.68;;;;;;;;;;5030719;28;20049;-72
2021/01/18 06:04:09;;;;;;;26.23;6.68;;;;;;;;;;5031210;28;20478;-73
2021/01/18 06:06:36;;;;;;;27.77;5.88;;;;;;;;;;5032394;28;20029;-72
2021/01/18 06:09:02;;;;;;;31.05;6.35;;;;;;;;;;5044488;28;20030;-73
2021/01/18 06:11:28;;;;;;;20.63;6.57;;;;;;;;;;5033142;28;20552;-72
2021/01/18 06:14:01;;;;;;;29.88;6.28;;;;;;;;;;5028997;28;20142;-72
2021/01/18 06:16:29;;;;;;;28.42;7.22;;;;;;;;;;5022243;28;20046;-72
2021/01/18 06:19:02;;;;;;;28.77;7.85;;;;;;;;;;5030404;28;20033;-72
2021/01/18 06:21:41;;;;;;;32.90;8.38;;;;;;;;;;5032688;28;20037;-73
2021/01/18 06:24:17;;;;;;;24.05;7.65;;;;;;;;;;5028687;28;20121;-72
2021/01/18 06:26:44;;;;;;;25.85;7.97;;;;;;;;;;5032233;28;20025;-73
2021/01/18 06:29:10;;;;;;;25.85;6.85;;;;;;;;;;5033529;28;20030;-73
2021/01/18 06:31:46;;;;;;;22.77;7.18;;;;;;;;;;5027355;28;20017;-73
2021/01/18 06:34:27;;;;;;;25.85;6.70;;;;;;;;;;5031306;28;20076;-73
2021/01/18 06:36:55;;;;;;;36.97;7.00;;;;;;;;;;5032219;28;20033;-72
2021/01/18 06:39:24;;;;;;;22.58;6.50;;;;;;;;;;5032588;28;20025;-73
2021/01/18 06:41:55;;;;;;;30.48;6.20;;;;;;;;;;5028520;28;20026;-71
2021/01/18 06:44:32;;;;;;;31.97;8.93;;;;;;;;;;5028857;28;20017;-73
2021/01/18 06:46:58;;;;;;;21.60;5.28;;;;;;;;;;5028707;28;20033;-72
2021/01/18 06:49:24;;;;;;;23.30;7.25;;;;;;;;;;5029618;28;20030;-72
2021/01/18 06:51:52;;;;;;;30.05;8.88;;;;;;;;;;5026809;28;20448;-72
2021/01/18 06:54:21;;;;;;;25.90;6.85;;;;;;;;;;5029446;28;20033;-72
2021/01/18 06:57:02;;;;;;;29.08;6.43;;;;;;;;;;5031317;28;20018;-73
2021/01/18 06:59:40;;;;;;;35.00;7.90;;;;;;;;;;5029086;28;20021;-73
2021/01/18 07:02:15;;;;;;;25.67;5.35;;;;;;;;;;5042428;28;20705;-73
2021/01/18 07:04:46;;;;;;;22.27;5.57;;;;;;;;;;5029852;28;20033;-73
2021/01/18 07:07:33;;;;;;;26.15;6.22;;;;;;;;;;5029703;28;20037;-72
2021/01/18 07:10:22;;;;;;;24.25;5.85;;;;;;;;;;5027828;28;20100;-73
2021/01/18 07:12:48;;;;;;;22.85;5.55;;;;;;;;;;5027974;28;20505;-73
2021/01/18 07:15:15;;;;;;;27.25;6.80;;;;;;;;;;5030898;28;20032;-72
2021/01/18 07:17:44;;;;;;;23.83;6.13;;;;;;;;;;5027971;28;20513;-73
2021/01/18 07:20:19;;;;;;;29.27;6.72;;;;;;;;;;5021453;28;20029;-72
2021/01/18 07:22:57;;;;;;;32.53;6.50;;;;;;;;;;5021196;28;20026;-72
2021/01/18 07:25:23;;;;;;;25.92;6.88;;;;;;;;;;5026480;28;20032;-72
2021/01/18 07:27:52;;;;;;;30.50;6.57;;;;;;;;;;5028769;28;20036;-73
2021/01/18 07:30:18;;;;;;;31.83;8.38;;;;;;;;;;5025881;28;20494;-72
2021/01/18 07:32:44;;;;;;;28.33;8.35;;;;;;;;;;5023751;28;20033;-72
2021/01/18 07:35:12;;;;;;;25.38;8.45;;;;;;;;;;5025993;28;20029;-72
2021/01/18 07:37:38;;;;;;;32.55;8.43;;;;;;;;;;5022742;28;20068;-73
2021/01/18 07:40:11;;;;;;;29.98;7.78;;;;;;;;;;5022677;28;20087;-72
2021/01/18 07:42:38;;;;;;;31.48;9.07;;;;;;;;;;5021146;28;20171;-72
2021/01/18 07:45:13;;;;;;;24.65;8.55;;;;;;;;;;5020673;28;20021;-72
2021/01/18 07:47:54;;;;;;;26.92;7.55;;;;;;;;;;5025206;28;20021;-72
2021/01/18 07:50:30;;;;;;;26.55;6.90;;;;;;;;;;5021953;28;20152;-72
2021/01/18 07:52:57;;;;;;;33.95;8.23;;;;;;;;;;5024453;28;20130;-72
2021/01/18 07:55:23;;;;;;;21.88;6.00;;;;;;;;;;5030489;28;20040;-72
2021/01/18 07:57:50;;;;;;;24.48;6.88;;;;;;;;;;5029860;28;20045;-71
2021/01/18 08:00:19;;;;;;;28.95;6.80;;;;;;;;;;5032735;28;20164;-71
2021/01/18 08:02:44;;;;;;;30.52;6.45;;;;;;;;;;5024528;28;20562;-72
2021/01/18 08:05:27;;;;;;;22.90;6.10;;;;;;;;;;5023654;28;20021;-72
2021/01/18 08:08:21;;;;;;;33.28;6.18;;;;;;;;;;5029000;28;20041;-72
2021/01/18 08:10:53;;;;;;;34.58;6.90;;;;;;;;;;5025781;28;20041;-72
2021/01/18 08:13:38;;;;;;;33.63;7.15;;;;;;;;;;5028164;28;20036;-73
2021/01/18 08:16:22;;;;;;;28.23;6.15;;;;;;;;;;5027684;28;20033;-73
2021/01/18 08:18:50;;;;;;;21.80;4.85;;;;;;;;;;5022821;28;20583;-72
2021/01/18 08:21:34;;;;;;;32.25;6.78;;;;;;;;;;5030846;28;20032;-73
2021/01/18 08:24:00;;;;;;;26.38;7.05;;;;;;;;;;5029291;28;20041;-72
2021/01/18 08:26:26;;;;;;;24.95;5.47;;;;;;;;;;5024063;28;20032;-72
2021/01/18 08:28:53;;;;;;;22.35;5.68;;;;;;;;;;5028301;28;20021;-73
2021/01/18 08:31:19;;;;;;;21.10;5.18;;;;;;;;;;5024611;28;20499;-72
2021/01/18 08:33:45;;;;;;;27.88;5.00;;;;;;;;;;5029933;28;20036;-73
2021/01/18 08:36:12;;;;;;;28.35;5.38;;;;;;;;;;5032406;28;20024;-72
2021/01/18 08:38:38;;;;;;;22.05;5.25;;;;;;;;;;5026077;28;20485;-72
2021/01/18 08:41:08;;;;;;;23.25;5.13;;;;;;;;;;5030360;28;20033;-72
2021/01/18 08:44:04;;;;;;;25.88;4.97;;;;;;;;;;5032075;28;20037;-72
2021/01/18 08:46:36;;;;;;;24.10;5.10;;;;;;;;;;5013836;28;20025;-72
2021/01/18 08:49:21;;;;;;;28.00;4.95;;;;;;;;;;5020415;28;20128;-71
2021/01/18 08:51:50;;;;;;;33.72;6.07;;;;;;;;;;5015319;28;20509;-73
2021/01/18 08:54:36;;;;;;;24.00;4.43;;;;;;;;;;5021305;28;20554;-72
2021/01/18 08:57:17;;;;;;;28.20;4.18;;;;;;;;;;5038656;28;20124;-72
2021/01/18 08:59:44;;;;;;;25.27;3.60;;;;;;;;;;5025675;28;20029;-72
2021/01/18 09:02:19;;;;;;;24.77;4.13;;;;;;;;;;5019068;28;20209;-73
2021/01/18 09:04:45;;;;;;;25.67;5.40;;;;;;;;;;5043762;28;20022;-72
2021/01/18 09:07:11;;;;;;;21.05;4.93;;;;;;;;;;5032853;28;20406;-73
2021/01/18 09:09:41;;;;;;;26.13;5.05;;;;;;;;;;5028706;28;20120;-72
2021/01/18 09:12:09;;;;;;;33.08;5.97;;;;;;;;;;5029516;28;20440;-72
2021/01/18 09:14:35;;;;;;;23.98;5.00;;;;;;;;;;5020364;28;20036;-72
2021/01/18 09:17:08;;;;;;;36.40;4.57;;;;;;;;;;5030000;28;20490;-72
2021/01/18 09:19:34;;;;;;;29.77;6.22;;;;;;;;;;5032950;28;20475;-73
2021/01/18 09:22:01;;;;;;;26.48;5.03;;;;;;;;;;5024409;28;20024;-72
2021/01/18 09:24:28;;;;;;;23.60;4.70;;;;;;;;;;5032250;28;20029;-72
2021/01/18 09:26:54;;;;;;;27.77;4.28;;;;;;;;;;5033984;28;20025;-72
2021/01/18 09:29:21;;;;;;;41.22;5.28;;;;;;;;;;5022448;28;21470;-72
2021/01/18 09:31:48;;;;;;;30.80;5.45;;;;;;;;;;5021461;28;20037;-72
2021/01/18 09:34:14;;;;;;;30.52;5.68;;;;;;;;;;5021996;28;20029;-73
2021/01/18 09:36:40;;;;;;;29.20;4.30;;;;;;;;;;5022120;28;20044;-73
2021/01/18 09:39:06;;;;;;;24.80;4.68;;;;;;;;;;5022174;28;20041;-73
2021/01/18 09:41:33;;;;;;;25.48;4.22;;;;;;;;;;5019547;28;20025;-73
2021/01/18 09:43:59;;;;;;;29.40;4.18;;;;;;;;;;5036265;28;20109;-73
2021/01/18 09:46:26;;;;;;;33.88;5.38;;;;;;;;;;5024511;28;20339;-72
2021/01/18 09:48:52;;;;;;;32.80;4.30;;;;;;;;;;5016787;28;20021;-73
2021/01/18 09:51:20;;;;;;;25.42;4.03;;;;;;;;;;5020829;28;20052;-72
2021/01/18 09:53:46;;;;;;;25.08;3.85;;;;;;;;;;5023958;28;20120;-73
2021/01/18 09:56:16;;;;;;;28.75;3.55;;;;;;;;;;5019105;28;20057;-73
2021/01/18 09:58:44;;;;;;;23.73;3.70;;;;;;;;;;5019955;28;20033;-73
2021/01/18 10:01:15;;;;;;;32.78;7.45;;;;;;;;;;5041229;28;20052;-73
2021/01/18 10:03:41;;;;;;;21.37;4.53;;;;;;;;;;5026597;28;20409;-73
2021/01/18 10:06:12;;;;;;;22.35;3.72;;;;;;;;;;5022742;28;20299;-73
2021/01/18 10:08:39;;;;;;;30.02;5.18;;;;;;;;;;5027945;28;20171;-73
2021/01/18 10:11:06;;;;;;;30.95;5.38;;;;;;;;;;5043584;28;20160;-73
2021/01/18 10:13:32;;;;;;;30.67;8.25;;;;;;;;;;5020622;28;20116;-73
2021/01/18 10:16:11;;;;;;;34.33;6.18;;;;;;;;;;5025642;28;20048;-73
2021/01/18 10:18:42;;;;;;;24.35;5.13;;;;;;;;;;5032273;28;20194;-72
2021/01/18 10:21:09;;;;;;;26.33;5.37;;;;;;;;;;5027838;28;20052;-73
2021/01/18 10:23:39;;;;;;;38.80;5.80;;;;;;;;;;5025280;28;20041;-73
2021/01/18 10:26:19;;;;;;;24.75;4.78;;;;;;;;;;5019377;28;20026;-73
2021/01/18 10:28:58;;;;;;;32.92;6.30;;;;;;;;;;5020279;28;20046;-73
2021/01/18 10:31:29;;;;;;;30.08;4.63;;;;;;;;;;5027350;28;20029;-72
2021/01/18 10:34:13;;;;;;;30.65;5.50;;;;;;;;;;5020904;28;20038;-73
2021/01/18 10:36:43;;;;;;;25.73;5.15;;;;;;;;;;5032597;28;20061;-73
2021/01/18 10:39:23;;;;;;;21.88;4.90;;;;;;;;;;5025700;28;20033;-73
2021/01/18 10:41:51;;;;;;;34.35;6.40;;;;;;;;;;5030701;28;20021;-73
2021/01/18 10:44:21;;;;;;;27.27;5.90;;;;;;;;;;5030449;28;20080;-74
2021/01/18 10:46:51;;;;;;;36.47;7.10;;;;;;;;;;5026160;28;20497;-73
2021/01/18 10:49:23;;;;;;;10.30;2.80;;;;;;;;;;5025725;28;20460;-72
2021/01/18 10:52:06;;;;;;;22.35;5.80;;;;;;;;;;5019526;28;20033;-73
2021/01/18 10:54:33;;;;;;;33.00;5.53;;;;;;;;;;5027903;28;20021;-72
2021/01/18 10:56:59;;;;;;;14.85;3.60;;;;;;;;;;5035999;28;20025;-72
2021/01/18 10:59:26;;;;;;;24.50;4.85;;;;;;;;;;5030888;28;20059;-73
2021/01/18 11:02:00;;;;;;;34.83;6.30;;;;;;;;;;5040595;28;20026;-74
2021/01/18 11:04:28;;;;;;;35.47;6.20;;;;;;;;;;5034594;28;20033;-72
2021/01/18 11:06:55;;;;;;;27.98;4.82;;;;;;;;;;5036953;28;20345;-72
2021/01/18 11:09:28;;;;;;;19.27;4.57;;;;;;;;;;5032318;28;20386;-73
2021/01/18 11:11:56;;;;;;;33.92;5.68;;;;;;;;;;5029511;28;20404;-73
2021/01/18 11:14:22;;;;;;;23.08;5.28;;;;;;;;;;5032966;28;20032;-73
2021/01/18 11:16:59;;;;;;;32.58;5.30;;;;;;;;;;5030527;28;20028;-72
2021/01/18 11:19:25;;;;;;;27.17;5.30;;;;;;;;;;5029825;28;20029;-72
2021/01/18 11:21:51;;;;;;;13.68;3.40;;;;;;;;;;5029414;28;20025;-74
2021/01/18 11:24:17;;;;;;;28.27;4.78;;;;;;;;;;5028157;28;20033;-74
2021/01/18 11:26:43;;;;;;;24.73;5.57;;;;;;;;;;5034377;28;20477;-73
2021/01/18 11:29:09;;;;;;;31.00;4.82;;;;;;;;;;5028373;28;20021;-71
2021/01/18 11:31:35;;;;;;;26.10;4.75;;;;;;;;;;5028023;28;20454;-73
2021/01/18 11:34:01;;;;;;;23.38;3.83;;;;;;;;;;5041798;28;20045;-71
2021/01/18 11:36:27;;;;;;;21.23;3.97;;;;;;;;;;5023895;28;20021;-72
2021/01/18 11:38:53;;;;;;;17.80;3.83;;;;;;;;;;5028084;28;20044;-73
2021/01/18 11:41:19;;;;;;;20.48;7.07;;;;;;;;;;5026685;28;20567;-73
2021/01/18 11:43:45;;;;;;;32.17;4.93;;;;;;;;;;5017761;28;20116;-75
2021/01/18 11:46:18;;;;;;;26.67;3.47;;;;;;;;;;5028233;28;20049;-72
2021/01/18 11:48:44;;;;;;;29.67;4.30;;;;;;;;;;5028414;28;20041;-72
2021/01/18 11:51:10;;;;;;;25.98;5.45;;;;;;;;;;5025175;28;20159;-72
2021/01/18 11:53:36;;;;;;;27.13;4.78;;;;;;;;;;5030901;28;20497;-73
2021/01/18 11:56:03;;;;;;;37.50;6.90;;;;;;;;;;5025099;28;20018;-74
2021/01/18 11:58:29;;;;;;;28.23;3.67;;;;;;;;;;5027976;28;20029;-73
2021/01/18 12:00:55;;;;;;;20.23;3.20;;;;;;;;;;5033794;28;20134;-69
2021/01/18 12:03:21;;;;;;;21.27;4.80;;;;;;;;;;5023777;28;20045;-73
2021/01/18 12:05:47;;;;;;;17.92;2.85;;;;;;;;;;5031447;28;20112;-72
2021/01/18 12:08:13;;;;;;;15.95;3.15;;;;;;;;;;5031643;28;20037;-72
2021/01/18 12:10:41;;;;;;;19.98;3.38;;;;;;;;;;5029815;28;20506;-74
2021/01/18 12:13:07;;;;;;;17.92;3.90;;;;;;;;;;5027008;28;20052;-71
2021/01/18 12:15:33;;;;;;;34.65;6.10;;;;;;;;;;5029286;28;20025;-73
2021/01/18 12:18:00;;;;;;;20.05;3.25;;;;;;;;;;5031334;28;20058;-71
2021/01/18 12:20:26;;;;;;;22.83;3.60;;;;;;;;;;5032860;28;20163;-72
2021/01/18 12:22:56;;;;;;;16.63;3.25;;;;;;;;;;5028183;28;20045;-71
2021/01/18 12:25:23;;;;;;;24.00;3.17;;;;;;;;;;5032323;28;20120;-70
2021/01/18 12:27:50;;;;;;;21.45;3.42;;;;;;;;;;5044142;28;20029;-71
2021/01/18 12:30:17;;;;;;;20.20;3.50;;;;;;;;;;5030663;28;20108;-70
2021/01/18 12:32:43;;;;;;;19.02;5.25;;;;;;;;;;5026419;28;20083;-71
2021/01/18 12:35:09;;;;;;;22.25;3.72;;;;;;;;;;5030878;28;20034;-70
2021/01/18 12:37:35;;;;;;;16.13;4.07;;;;;;;;;;5030065;28;20048;-71
2021/01/18 12:40:01;;;;;;;19.02;3.47;;;;;;;;;;5028178;28;20033;-71
2021/01/18 12:42:27;;;;;;;21.08;2.65;;;;;;;;;;5023419;28;20045;-70
2021/01/18 12:44:53;;;;;;;24.77;3.42;;;;;;;;;;5036032;28;20477;-72
2021/01/18 12:47:19;;;;;;;23.50;4.78;;;;;;;;;;5030043;28;20022;-73
2021/01/18 12:49:45;;;;;;;32.08;4.88;;;;;;;;;;5030936;28;20736;-72
2021/01/18 12:52:11;;;;;;;19.67;3.90;;;;;;;;;;5026895;28;20417;-71
2021/01/18 12:54:37;;;;;;;18.10;3.72;;;;;;;;;;5030899;28;20030;-74
2021/01/18 12:57:04;;;;;;;14.98;3.47;;;;;;;;;;5032944;28;20016;-72
2021/01/18 12:59:30;;;;;;;27.27;4.18;;;;;;;;;;5030266;28;20143;-71
2021/01/18 13:01:56;;;;;;;13.65;2.58;;;;;;;;;;5030208;28;20119;-74
2021/01/18 13:04:22;;;;;;;20.83;3.33;;;;;;;;;;5028358;28;20073;-72
2021/01/18 13:06:49;;;;;;;23.92;3.25;;;;;;;;;;5030285;28;20049;-74
2021/01/18 13:09:21;;;;;;;15.00;2.13;;;;;;;;;;5031482;28;20033;-72
2021/01/18 13:11:49;;;;;;;29.80;5.63;;;;;;;;;;5024925;28;20163;-71
2021/01/18 13:14:16;;;;;;;18.48;3.53;;;;;;;;;;5031876;28;20033;-71
2021/01/18 13:16:42;;;;;;;24.60;4.05;;;;;;;;;;5030018;28;20577;-73
2021/01/18 13:19:08;;;;;;;21.67;4.35;;;;;;;;;;5033948;28;20029;-70
2021/01/18 13:21:34;;;;;;;11.23;2.35;;;;;;;;;;5034970;28;20022;-73
2021/01/18 13:24:00;;;;;;;10.10;2.33;;;;;;;;;;5033412;28;20034;-73
2021/01/18 13:26:26;;;;;;;22.35;5.75;;;;;;;;;;5028250;28;20045;-72
2021/01/18 13:28:53;;;;;;;30.13;4.43;;;;;;;;;;5027167;28;20577;-73
2021/01/18 13:31:19;;;;;;;25.85;4.35;;;;;;;;;;5031215;28;20021;-71
2021/01/18 13:33:46;;;;;;;18.73;4.70;;;;;;;;;;5028974;28;20163;-72
2021/01/18 13:36:20;;;;;;;15.30;3.33;;;;;;;;;;5046932;28;20029;-71
2021/01/18 13:38:46;;;;;;;15.95;3.80;;;;;;;;;;5033606;28;20040;-71
2021/01/18 13:41:13;;;;;;;20.63;4.63;;;;;;;;;;5024047;28;20017;-72
2021/01/18 13:43:39;;;;;;;25.20;6.43;;;;;;;;;;5027055;28;20026;-74
2021/01/18 13:46:07;;;;;;;26.17;4.50;;;;;;;;;;5029927;28;20040;-72
2021/01/18 13:48:33;;;;;;;30.50;4.85;;;;;;;;;;5034351;28;20025;-72
2021/01/18 13:51:00;;;;;;;25.30;4.85;;;;;;;;;;5030534;28;20079;-73
2021/01/18 13:53:26;;;;;;;19.65;3.67;;;;;;;;;;5031849;28;20068;-72
2021/01/18 13:55:52;;;;;;;18.23;3.90;;;;;;;;;;5028426;28;20030;-71
2021/01/18 13:58:18;;;;;;;20.65;3.72;;;;;;;;;;5033875;28;20512;-72
2021/01/18 14:00:44;;;;;;;13.95;4.13;;;;;;;;;;5037447;28;20041;-72
2021/01/18 14:03:10;;;;;;;18.05;3.95;;;;;;;;;;5032349;28;20017;-73
2021/01/18 14:05:40;;;;;;;17.67;4.03;;;;;;;;;;5024982;28;20021;-72
2021/01/18 14:08:06;;;;;;;17.88;3.80;;;;;;;;;;5035217;28;20029;-73
2021/01/18 14:10:32;;;;;;;20.30;5.22;;;;;;;;;;5030036;28;20021;-72
2021/01/18 14:12:59;;;;;;;18.85;4.68;;;;;;;;;;5031749;28;20025;-70
2021/01/18 14:15:25;;;;;;;22.00;4.15;;;;;;;;;;5032836;28;20537;-71
2021/01/18 14:17:51;;;;;;;31.45;4.65;;;;;;;;;;5050038;28;20084;-71
2021/01/18 14:20:17;;;;;;;21.95;4.85;;;;;;;;;;5034649;28;20029;-72
2021/01/18 14:22:43;;;;;;;15.95;4.40;;;;;;;;;;5039834;28;20049;-72
2021/01/18 14:25:11;;;;;;;13.80;3.13;;;;;;;;;;5032763;28;20079;-72
2021/01/18 14:27:37;;;;;;;17.73;4.05;;;;;;;;;;5050211;28;20034;-73
2021/01/18 14:30:03;;;;;;;21.95;5.10;;;;;;;;;;5042977;28;20025;-72
2021/01/18 14:32:29;;;;;;;20.42;5.00;;;;;;;;;;5034834;28;20044;-72
2021/01/18 14:34:55;;;;;;;17.10;4.25;;;;;;;;;;5033030;28;20025;-72
2021/01/18 14:37:21;;;;;;;22.50;3.95;;;;;;;;;;5037040;28;20041;-72
2021/01/18 14:39:47;;;;;;;14.15;2.80;;;;;;;;;;5032342;28;20056;-74